createdAt,value
2019-03-28T00:00:08.065Z,11.72
2019-03-28T00:02:00.300Z,11.60
2019-03-28T00:03:00.318Z,11.61
2019-03-28T00:04:53.220Z,11.54
2019-03-28T00:05:53.228Z,11.52
2019-03-28T00:07:46.133Z,11.49
2019-03-28T00:08:46.228Z,11.49
2019-03-28T00:10:39.051Z,11.42
2019-03-28T00:11:39.057Z,11.43
2019-03-28T00:13:31.967Z,11.43
2019-03-28T00:14:31.973Z,11.46
2019-03-28T00:16:24.876Z,11.37
2019-03-28T00:17:24.887Z,11.43
2019-03-28T00:19:17.896Z,11.40
2019-03-28T00:20:17.801Z,11.44
2019-03-28T00:22:10.705Z,11.42
2019-03-28T00:23:10.715Z,11.36
2019-03-28T00:25:03.626Z,11.39
2019-03-28T00:26:03.633Z,11.40
2019-03-28T00:27:56.534Z,11.42
2019-03-28T00:28:56.547Z,11.39
2019-03-28T00:30:49.456Z,11.39
2019-03-28T00:31:49.468Z,11.37
2019-03-28T00:33:42.373Z,11.36
2019-03-28T00:34:42.377Z,11.28
2019-03-28T00:36:35.283Z,11.36
2019-03-28T00:37:35.408Z,11.25
2019-03-28T00:39:28.211Z,11.35
2019-03-28T00:40:28.209Z,11.33
2019-03-28T00:42:21.108Z,11.35
2019-03-28T00:43:21.119Z,11.24
2019-03-28T00:45:14.029Z,11.40
2019-03-28T00:46:14.034Z,11.33
2019-03-28T00:48:07.079Z,11.19
2019-03-28T00:49:07.093Z,11.32
2019-03-28T00:51:00.233Z,11.24
2019-03-28T00:52:00.008Z,11.21
2019-03-28T00:53:53.412Z,11.27
2019-03-28T00:54:53.417Z,11.25
2019-03-28T00:56:47.601Z,11.17
2019-03-28T00:57:46.332Z,11.27
2019-03-28T00:59:39.242Z,11.22
2019-03-28T01:00:39.246Z,11.22
2019-03-28T01:02:32.144Z,11.21
2019-03-28T01:03:32.158Z,11.24
2019-03-28T01:05:25.067Z,11.24
2019-03-28T01:06:25.071Z,11.22
2019-03-28T01:08:17.973Z,11.21
2019-03-28T01:09:17.992Z,11.21
2019-03-28T01:11:10.894Z,11.10
2019-03-28T01:12:10.901Z,11.10
2019-03-28T01:14:03.810Z,11.18
2019-03-28T01:15:03.816Z,11.19
2019-03-28T01:16:56.718Z,11.14
2019-03-28T01:17:56.729Z,11.15
2019-03-28T01:19:49.639Z,11.17
2019-03-28T01:20:49.643Z,11.17
2019-03-28T01:22:43.043Z,11.14
2019-03-28T01:23:43.054Z,11.11
2019-03-28T01:25:35.961Z,11.14
2019-03-28T01:26:35.968Z,11.17
2019-03-28T01:28:28.873Z,11.18
2019-03-28T01:29:28.885Z,11.14
2019-03-28T01:31:21.791Z,11.18
2019-03-28T01:32:21.805Z,11.17
2019-03-28T01:34:14.706Z,11.18
2019-03-28T01:35:14.713Z,11.18
2019-03-28T01:37:07.615Z,11.21
2019-03-28T01:38:07.627Z,11.17
2019-03-28T01:40:00.842Z,11.19
2019-03-28T01:41:00.540Z,11.14
2019-03-28T01:42:53.440Z,11.11
2019-03-28T01:43:53.455Z,11.19
2019-03-28T01:45:46.365Z,11.15
2019-03-28T01:46:46.368Z,11.10
2019-03-28T01:48:39.275Z,11.14
2019-03-28T01:49:39.284Z,11.17
2019-03-28T01:51:32.185Z,11.17
2019-03-28T01:52:32.197Z,11.17
2019-03-28T01:54:25.119Z,11.21
2019-03-28T01:55:25.111Z,11.15
2019-03-28T01:57:18.015Z,11.17
2019-03-28T01:58:18.027Z,11.15
2019-03-28T02:00:10.933Z,11.17
2019-03-28T02:01:10.937Z,11.11
2019-03-28T02:03:03.837Z,11.19
2019-03-28T02:04:03.854Z,11.22
2019-03-28T02:05:57.257Z,11.14
2019-03-28T02:06:57.260Z,11.11
2019-03-28T02:08:50.191Z,11.21
2019-03-28T02:09:50.178Z,11.14
2019-03-28T02:11:43.075Z,11.15
2019-03-28T02:12:43.091Z,11.17
2019-03-28T02:14:35.994Z,11.09
2019-03-28T02:15:35.999Z,11.04
2019-03-28T02:17:28.903Z,11.10
2019-03-28T02:18:29.272Z,11.06
2019-03-28T02:20:21.826Z,11.11
2019-03-28T02:21:21.830Z,11.07
2019-03-28T02:23:14.731Z,11.09
2019-03-28T02:24:14.744Z,11.06
2019-03-28T02:26:07.651Z,11.09
2019-03-28T02:27:07.662Z,11.11
2019-03-28T02:29:00.564Z,11.15
2019-03-28T02:30:00.571Z,11.11
2019-03-28T02:31:53.481Z,11.17
2019-03-28T02:32:53.486Z,11.15
2019-03-28T02:34:48.953Z,11.17
2019-03-28T02:35:46.401Z,11.15
2019-03-28T02:37:39.301Z,11.25
2019-03-28T02:38:39.315Z,11.15
2019-03-28T02:40:32.226Z,11.22
2019-03-28T02:41:32.226Z,11.15
2019-03-28T02:43:25.129Z,11.17
2019-03-28T02:44:25.146Z,11.09
2019-03-28T02:46:18.054Z,10.99
2019-03-28T02:47:18.054Z,11.06
2019-03-28T02:49:10.963Z,11.00
2019-03-28T02:50:11.492Z,10.97
2019-03-28T02:52:03.871Z,11.07
2019-03-28T02:53:03.886Z,11.02
2019-03-28T02:54:57.931Z,10.94
2019-03-28T02:55:56.797Z,11.00
2019-03-28T02:57:49.700Z,10.89
2019-03-28T02:58:49.710Z,10.91
2019-03-28T03:00:42.620Z,10.89
2019-03-28T03:01:42.622Z,10.92
2019-03-28T03:03:35.526Z,10.89
2019-03-28T03:04:35.539Z,10.89
2019-03-28T03:06:28.451Z,10.88
2019-03-28T03:07:28.453Z,10.85
2019-03-28T03:09:21.360Z,10.89
2019-03-28T03:10:21.366Z,10.86
2019-03-28T03:12:14.267Z,10.85
2019-03-28T03:13:14.277Z,10.74
2019-03-28T03:15:07.186Z,10.79
2019-03-28T03:16:07.191Z,10.78
2019-03-28T03:18:00.093Z,10.74
2019-03-28T03:19:00.105Z,10.86
2019-03-28T03:20:53.014Z,10.85
2019-03-28T03:21:53.019Z,10.68
2019-03-28T03:23:46.601Z,10.64
2019-03-28T03:24:45.940Z,10.67
2019-03-28T03:26:38.912Z,10.64
2019-03-28T03:27:38.852Z,10.73
2019-03-28T03:29:31.769Z,10.61
2019-03-28T03:30:32.308Z,10.67
2019-03-28T03:32:24.666Z,10.70
2019-03-28T03:33:24.692Z,10.68
2019-03-28T03:35:17.582Z,10.60
2019-03-28T03:36:17.588Z,10.64
2019-03-28T03:38:10.488Z,10.61
2019-03-28T03:39:10.501Z,10.67
2019-03-28T03:41:03.409Z,10.64
2019-03-28T03:42:03.414Z,10.55
2019-03-28T03:43:56.322Z,10.64
2019-03-28T03:44:56.328Z,10.64
2019-03-28T03:46:49.229Z,10.60
2019-03-28T03:47:49.242Z,10.61
2019-03-28T03:49:42.147Z,10.67
2019-03-28T03:50:42.152Z,10.66
2019-03-28T03:52:35.095Z,10.64
2019-03-28T03:53:35.077Z,10.60
2019-03-28T03:55:27.978Z,10.66
2019-03-28T03:56:27.983Z,10.63
2019-03-28T03:58:20.884Z,10.63
2019-03-28T03:59:20.896Z,10.68
2019-03-28T04:01:13.801Z,10.74
2019-03-28T04:02:13.811Z,10.78
2019-03-28T04:04:06.721Z,10.82
2019-03-28T04:05:06.743Z,10.76
2019-03-28T04:06:59.622Z,10.76
2019-03-28T04:08:00.092Z,10.71
2019-03-28T04:09:52.548Z,10.68
2019-03-28T04:10:52.547Z,10.61
2019-03-28T04:12:45.454Z,10.67
2019-03-28T04:13:45.465Z,10.64
2019-03-28T04:15:38.373Z,10.55
2019-03-28T04:16:38.378Z,10.66
2019-03-28T04:18:31.279Z,10.61
2019-03-28T04:19:31.943Z,10.59
2019-03-28T04:21:24.212Z,10.61
2019-03-28T04:22:24.204Z,10.67
2019-03-28T04:24:17.115Z,10.66
2019-03-28T04:25:17.123Z,10.64
2019-03-28T04:27:10.023Z,10.66
2019-03-28T04:28:10.032Z,10.68
2019-03-28T04:30:03.091Z,10.74
2019-03-28T04:31:03.095Z,10.70
2019-03-28T04:32:55.995Z,10.85
2019-03-28T04:33:56.008Z,10.78
2019-03-28T04:35:49.002Z,10.84
2019-03-28T04:36:48.921Z,10.76
2019-03-28T04:38:41.823Z,10.85
2019-03-28T04:39:42.427Z,10.84
2019-03-28T04:41:34.743Z,10.82
2019-03-28T04:42:34.754Z,10.78
2019-03-28T04:44:27.659Z,10.81
2019-03-28T04:45:27.664Z,10.81
2019-03-28T04:47:20.562Z,10.73
2019-03-28T04:48:20.574Z,10.63
2019-03-28T04:50:13.484Z,10.66
2019-03-28T04:51:13.491Z,10.61
2019-03-28T04:53:06.393Z,10.60
2019-03-28T04:54:09.588Z,10.59
2019-03-28T04:55:59.307Z,10.66
2019-03-28T04:56:59.316Z,10.63
2019-03-28T04:58:52.216Z,10.60
2019-03-28T04:59:52.228Z,10.67
2019-03-28T05:01:58.748Z,10.59
2019-03-28T05:02:46.139Z,10.60
2019-03-28T05:04:38.062Z,10.67
2019-03-28T05:05:38.055Z,10.64
2019-03-28T05:07:30.959Z,10.78
2019-03-28T05:08:30.972Z,10.71
2019-03-28T05:10:23.877Z,10.63
2019-03-28T05:11:23.881Z,10.66
2019-03-28T05:13:16.785Z,10.66
2019-03-28T05:14:16.795Z,10.70
2019-03-28T05:16:09.701Z,10.64
2019-03-28T05:17:09.706Z,10.61
2019-03-28T05:19:02.607Z,10.56
2019-03-28T05:20:02.624Z,10.59
2019-03-28T05:21:56.388Z,10.53
2019-03-28T05:22:55.536Z,10.52
2019-03-28T05:24:48.443Z,10.44
2019-03-28T05:25:48.446Z,10.36
2019-03-28T05:27:41.356Z,10.32
2019-03-28T05:28:41.360Z,10.34
2019-03-28T05:30:34.268Z,10.41
2019-03-28T05:31:34.421Z,10.42
2019-03-28T05:33:27.173Z,10.47
2019-03-28T05:34:27.184Z,10.45
2019-03-28T05:36:20.092Z,10.41
2019-03-28T05:37:20.097Z,10.53
2019-03-28T05:39:13.071Z,10.52
2019-03-28T05:40:13.050Z,10.60
2019-03-28T05:42:05.985Z,10.61
2019-03-28T05:43:05.962Z,10.64
2019-03-28T05:44:58.871Z,10.60
2019-03-28T05:45:58.944Z,10.60
2019-03-28T05:47:52.269Z,10.59
2019-03-28T05:48:52.292Z,10.63
2019-03-28T05:50:45.682Z,10.71
2019-03-28T05:51:45.687Z,10.78
2019-03-28T05:53:38.619Z,10.74
2019-03-28T05:54:38.601Z,10.68
2019-03-28T05:56:31.510Z,10.86
2019-03-28T05:57:31.515Z,10.89
2019-03-28T05:59:24.419Z,10.88
2019-03-28T06:00:24.430Z,10.84
2019-03-28T06:02:17.336Z,10.82
2019-03-28T06:03:17.343Z,10.85
2019-03-28T06:05:10.746Z,10.88
2019-03-28T06:06:10.752Z,10.89
2019-03-28T06:08:03.651Z,10.99
2019-03-28T06:09:03.662Z,11.04
2019-03-28T06:10:56.570Z,11.18
2019-03-28T06:11:56.577Z,11.14
2019-03-28T06:13:49.482Z,11.27
2019-03-28T06:14:49.492Z,11.35
2019-03-28T06:16:42.400Z,11.43
2019-03-28T06:17:42.406Z,11.47
2019-03-28T06:19:35.310Z,11.43
2019-03-28T06:20:35.324Z,11.54
2019-03-28T06:22:28.271Z,11.44
2019-03-28T06:23:28.242Z,11.43
2019-03-28T06:25:21.154Z,11.57
2019-03-28T06:26:21.157Z,11.58
2019-03-28T06:28:14.066Z,11.60
2019-03-28T06:29:23.843Z,11.64
2019-03-28T06:31:06.996Z,11.64
2019-03-28T06:32:06.995Z,11.67
2019-03-28T06:34:00.478Z,11.54
2019-03-28T06:34:59.912Z,11.46
2019-03-28T06:36:52.824Z,11.43
2019-03-28T06:37:52.829Z,11.47
2019-03-28T06:39:46.238Z,11.36
2019-03-28T06:40:46.241Z,11.47
2019-03-28T06:42:39.152Z,11.42
2019-03-28T06:43:41.973Z,11.37
2019-03-28T06:45:32.086Z,11.25
2019-03-28T06:46:32.077Z,11.21
2019-03-28T06:48:24.980Z,11.28
2019-03-28T06:49:24.995Z,11.36
2019-03-28T06:51:17.906Z,11.42
2019-03-28T06:52:17.913Z,11.51
2019-03-28T06:54:10.821Z,11.57
2019-03-28T06:55:10.828Z,11.67
2019-03-28T06:57:03.741Z,11.69
2019-03-28T06:58:03.747Z,11.62
2019-03-28T06:59:56.659Z,11.57
2019-03-28T07:00:56.664Z,11.51
2019-03-28T07:02:49.571Z,11.58
2019-03-28T07:03:49.581Z,11.64
2019-03-28T07:05:42.495Z,11.67
2019-03-28T07:06:42.500Z,11.72
2019-03-28T07:08:35.400Z,11.72
2019-03-28T07:09:35.415Z,11.75
2019-03-28T07:11:28.510Z,11.78
2019-03-28T07:12:28.326Z,11.73
2019-03-28T07:14:21.685Z,11.55
2019-03-28T07:15:21.246Z,11.47
2019-03-28T07:17:14.159Z,11.43
2019-03-28T07:18:14.160Z,11.37
2019-03-28T07:20:08.949Z,11.42
2019-03-28T07:21:07.083Z,11.43
2019-03-28T07:22:59.987Z,11.43
2019-03-28T07:24:00.002Z,11.54
2019-03-28T07:25:52.914Z,11.62
2019-03-28T07:26:52.918Z,11.64
2019-03-28T07:28:45.821Z,11.52
2019-03-28T07:29:51.077Z,11.64
2019-03-28T07:31:38.747Z,11.70
2019-03-28T07:32:38.753Z,11.60
2019-03-28T07:34:31.660Z,11.60
2019-03-28T07:35:31.671Z,11.62
2019-03-28T07:37:27.737Z,11.64
2019-03-28T07:38:24.589Z,11.72
2019-03-28T07:40:17.556Z,11.73
2019-03-28T07:41:17.504Z,11.67
2019-03-28T07:43:10.412Z,11.79
2019-03-28T07:44:10.425Z,11.85
2019-03-28T07:46:03.335Z,11.83
2019-03-28T07:47:03.357Z,11.98
2019-03-28T07:48:56.260Z,12.16
2019-03-28T07:49:56.262Z,12.14
2019-03-28T07:51:49.171Z,12.32
2019-03-28T07:52:49.177Z,12.45
2019-03-28T07:54:42.142Z,12.62
2019-03-28T07:55:42.152Z,12.62
2019-03-28T07:57:35.067Z,12.90
2019-03-28T07:58:35.405Z,12.89
2019-03-28T08:00:27.985Z,13.03
2019-03-28T08:01:27.989Z,12.92
2019-03-28T08:03:20.895Z,13.07
2019-03-28T08:04:20.910Z,13.00
2019-03-28T08:06:13.818Z,13.20
2019-03-28T08:07:13.827Z,13.30
2019-03-28T08:09:06.734Z,13.15
2019-03-28T08:10:06.756Z,13.22
2019-03-28T08:11:59.663Z,13.20
2019-03-28T08:12:59.670Z,13.17
2019-03-28T08:14:52.592Z,13.36
2019-03-28T08:15:52.592Z,13.32
2019-03-28T08:17:46.001Z,13.17
2019-03-28T08:18:46.011Z,13.33
2019-03-28T08:20:38.928Z,13.30
2019-03-28T08:21:38.934Z,13.55
2019-03-28T08:23:35.186Z,13.73
2019-03-28T08:24:31.856Z,13.79
2019-03-28T08:26:25.266Z,13.70
2019-03-28T08:27:25.274Z,13.70
2019-03-28T08:29:18.182Z,13.57
2019-03-28T08:30:19.477Z,13.60
2019-03-28T08:32:13.571Z,13.75
2019-03-28T08:33:11.118Z,13.73
2019-03-28T08:35:04.157Z,13.73
2019-03-28T08:36:04.041Z,13.91
2019-03-28T08:37:57.022Z,14.07
2019-03-28T08:38:56.964Z,14.06
2019-03-28T08:40:49.917Z,14.10
2019-03-28T08:41:50.692Z,14.07
2019-03-28T08:43:42.948Z,14.15
2019-03-28T08:44:42.814Z,14.15
2019-03-28T08:46:35.732Z,14.06
2019-03-28T08:47:35.742Z,14.10
2019-03-28T08:49:28.655Z,14.02
2019-03-28T08:50:28.665Z,13.97
2019-03-28T08:52:21.581Z,14.07
2019-03-28T08:53:21.593Z,14.14
2019-03-28T08:55:15.086Z,14.15
2019-03-28T08:56:15.013Z,14.32
2019-03-28T08:58:07.922Z,14.60
2019-03-28T08:59:07.937Z,14.60
2019-03-28T09:01:00.856Z,14.73
2019-03-28T09:02:00.866Z,14.83
2019-03-28T09:03:53.779Z,15.07
2019-03-28T09:04:53.794Z,15.13
2019-03-28T09:06:46.733Z,15.14
2019-03-28T09:07:46.722Z,15.14
2019-03-28T09:09:39.629Z,15.06
2019-03-28T09:10:39.644Z,14.94
2019-03-28T09:12:35.170Z,14.92
2019-03-28T09:13:32.572Z,15.11
2019-03-28T09:15:25.493Z,15.07
2019-03-28T09:16:25.500Z,15.19
2019-03-28T09:18:18.904Z,15.39
2019-03-28T09:19:18.929Z,15.35
2019-03-28T09:21:11.842Z,15.43
2019-03-28T09:22:11.849Z,15.27
2019-03-28T09:24:04.762Z,14.98
2019-03-28T09:25:04.783Z,14.95
2019-03-28T09:26:57.733Z,14.68
2019-03-28T09:27:57.704Z,14.69
2019-03-28T09:29:50.614Z,14.62
2019-03-28T09:30:50.634Z,14.73
2019-03-28T09:32:43.548Z,14.94
2019-03-28T09:33:43.562Z,15.06
2019-03-28T09:35:36.493Z,15.31
2019-03-28T09:36:36.487Z,15.38
2019-03-28T09:38:29.395Z,15.44
2019-03-28T09:39:29.412Z,15.47
2019-03-28T09:41:22.333Z,15.53
2019-03-28T09:42:22.342Z,15.43
2019-03-28T09:44:15.251Z,15.38
2019-03-28T09:45:15.272Z,15.35
2019-03-28T09:47:08.190Z,15.35
2019-03-28T09:48:11.428Z,15.38
2019-03-28T09:50:01.198Z,15.41
2019-03-28T09:51:01.127Z,15.35
2019-03-28T09:52:54.096Z,15.46
2019-03-28T09:53:54.055Z,15.49
2019-03-28T09:55:46.976Z,15.53
2019-03-28T09:56:46.987Z,15.62
2019-03-28T09:58:39.896Z,15.71
2019-03-28T09:59:39.912Z,15.68
2019-03-28T10:01:32.853Z,15.71
2019-03-28T10:02:32.842Z,15.72
2019-03-28T10:04:25.751Z,15.89
2019-03-28T10:05:25.768Z,15.89
2019-03-28T10:07:19.177Z,15.92
2019-03-28T10:08:19.189Z,15.74
2019-03-28T10:10:12.100Z,15.69
2019-03-28T10:11:12.115Z,15.75
2019-03-28T10:13:05.032Z,15.41
2019-03-28T10:14:05.039Z,15.49
2019-03-28T10:15:57.956Z,15.53
2019-03-28T10:16:57.970Z,15.57
2019-03-28T10:18:50.882Z,15.62
2019-03-28T10:19:50.893Z,15.72
2019-03-28T10:21:43.803Z,15.69
2019-03-28T10:22:43.821Z,15.59
2019-03-28T10:24:36.729Z,15.60
2019-03-28T10:25:36.746Z,15.68
2019-03-28T10:27:29.689Z,15.59
2019-03-28T10:28:29.671Z,15.69
2019-03-28T10:30:22.586Z,15.59
2019-03-28T10:31:22.598Z,15.69
2019-03-28T10:33:15.514Z,15.90
2019-03-28T10:34:15.524Z,15.59
2019-03-28T10:36:08.442Z,15.68
2019-03-28T10:37:08.454Z,15.80
2019-03-28T10:39:01.395Z,16.05
2019-03-28T10:40:01.379Z,16.11
2019-03-28T10:41:54.881Z,16.38
2019-03-28T10:42:54.309Z,16.50
2019-03-28T10:44:47.235Z,16.64
2019-03-28T10:45:47.236Z,16.64
2019-03-28T10:47:40.153Z,16.50
2019-03-28T10:48:40.166Z,16.50
2019-03-28T10:50:40.890Z,16.35
2019-03-28T10:51:33.091Z,16.30
2019-03-28T10:53:26.004Z,16.43
2019-03-28T10:54:26.019Z,16.43
2019-03-28T10:56:23.404Z,16.45
2019-03-28T10:57:29.420Z,16.61
2019-03-28T10:59:22.644Z,16.81
2019-03-28T11:00:23.421Z,16.93
2019-03-28T11:02:04.798Z,16.83
2019-03-28T11:03:05.031Z,16.79
2019-03-28T11:04:57.771Z,16.64
2019-03-28T11:05:57.739Z,16.64
2019-03-28T11:07:50.685Z,16.70
2019-03-28T11:08:50.671Z,16.61
2019-03-28T11:10:43.604Z,16.76
2019-03-28T11:11:43.598Z,16.76
2019-03-28T11:13:36.510Z,16.63
2019-03-28T11:14:36.528Z,16.43
2019-03-28T11:16:29.574Z,16.09
2019-03-28T11:17:29.455Z,16.09
2019-03-28T11:19:22.372Z,16.12
2019-03-28T11:20:22.385Z,16.05
2019-03-28T11:22:15.301Z,16.07
2019-03-28T11:23:15.313Z,15.93
2019-03-28T11:25:08.233Z,15.54
2019-03-28T11:26:08.255Z,15.59
2019-03-28T11:28:01.167Z,15.59
2019-03-28T11:29:01.257Z,15.67
2019-03-28T11:30:54.094Z,15.78
2019-03-28T11:31:54.104Z,15.76
2019-03-28T11:33:47.567Z,16.21
2019-03-28T11:34:47.035Z,16.41
2019-03-28T11:36:39.971Z,16.57
2019-03-28T11:37:39.966Z,16.45
2019-03-28T11:39:32.884Z,16.46
2019-03-28T11:40:32.898Z,16.60
2019-03-28T11:42:25.833Z,16.67
2019-03-28T11:43:25.831Z,16.82
2019-03-28T11:45:18.746Z,16.88
2019-03-28T11:46:18.764Z,16.82
2019-03-28T11:48:11.751Z,16.79
2019-03-28T11:49:11.696Z,16.60
2019-03-28T11:51:04.618Z,16.42
2019-03-28T11:52:04.627Z,16.50
2019-03-28T11:53:57.538Z,16.66
2019-03-28T11:54:57.559Z,16.81
2019-03-28T11:56:51.034Z,16.85
2019-03-28T11:57:50.983Z,16.83
2019-03-28T11:59:43.895Z,16.60
2019-03-28T12:00:43.918Z,16.53
2019-03-28T12:02:36.838Z,16.49
2019-03-28T12:03:36.844Z,16.17
2019-03-28T12:05:29.764Z,16.39
2019-03-28T12:06:29.780Z,16.49
2019-03-28T12:08:22.743Z,16.61
2019-03-28T12:09:22.714Z,16.64
2019-03-28T12:11:15.706Z,16.78
2019-03-28T12:12:15.648Z,16.81
2019-03-28T12:14:08.561Z,16.97
2019-03-28T12:15:08.579Z,16.94
2019-03-28T12:17:01.501Z,16.88
2019-03-28T12:18:01.510Z,16.78
2019-03-28T12:19:54.428Z,16.63
2019-03-28T12:20:54.445Z,16.49
2019-03-28T12:22:47.361Z,16.48
2019-03-28T12:23:47.732Z,16.64
2019-03-28T12:25:40.354Z,16.67
2019-03-28T12:26:40.306Z,16.66
2019-03-28T12:28:33.223Z,16.63
2019-03-28T12:29:35.781Z,16.61
2019-03-28T12:31:26.152Z,16.46
2019-03-28T12:32:26.165Z,16.56
2019-03-28T12:34:19.082Z,16.39
2019-03-28T12:35:19.095Z,16.35
2019-03-28T12:37:12.016Z,16.42
2019-03-28T12:38:12.029Z,16.24
2019-03-28T12:40:05.082Z,16.20
2019-03-28T12:41:05.101Z,16.17
2019-03-28T12:42:58.024Z,16.09
2019-03-28T12:43:58.028Z,16.00
2019-03-28T12:45:50.950Z,16.09
2019-03-28T12:46:50.964Z,16.08
2019-03-28T12:48:43.879Z,16.12
2019-03-28T12:49:43.889Z,16.20
2019-03-28T12:51:36.834Z,16.24
2019-03-28T12:52:36.825Z,16.15
2019-03-28T12:54:29.779Z,16.31
2019-03-28T12:55:29.752Z,16.23
2019-03-28T12:57:22.671Z,16.31
2019-03-28T12:58:22.682Z,16.39
2019-03-28T13:00:15.591Z,16.45
2019-03-28T13:01:15.608Z,16.61
2019-03-28T13:03:08.529Z,16.63
2019-03-28T13:04:08.541Z,16.50
2019-03-28T13:06:01.494Z,16.27
2019-03-28T13:07:01.468Z,16.21
2019-03-28T13:08:54.386Z,16.05
2019-03-28T13:09:54.396Z,15.97
2019-03-28T13:11:47.393Z,16.04
2019-03-28T13:12:47.323Z,16.11
2019-03-28T13:14:40.235Z,16.27
2019-03-28T13:15:40.264Z,16.31
2019-03-28T13:17:33.174Z,16.33
2019-03-28T13:18:35.888Z,16.25
2019-03-28T13:20:26.094Z,16.24
2019-03-28T13:21:26.111Z,16.24
2019-03-28T13:23:19.030Z,16.35
2019-03-28T13:24:19.043Z,16.35
2019-03-28T13:26:11.966Z,16.23
2019-03-28T13:27:11.968Z,16.20
2019-03-28T13:29:04.954Z,16.21
2019-03-28T13:30:04.899Z,16.17
2019-03-28T13:31:58.310Z,16.05
2019-03-28T13:32:58.317Z,16.04
2019-03-28T13:34:51.232Z,16.04
2019-03-28T13:35:51.251Z,16.01
2019-03-28T13:37:44.166Z,16.09
2019-03-28T13:38:44.174Z,15.97
2019-03-28T13:40:37.084Z,15.83
2019-03-28T13:41:37.101Z,15.75
2019-03-28T13:43:30.619Z,15.82
2019-03-28T13:44:30.410Z,15.69
2019-03-28T13:46:22.949Z,15.60
2019-03-28T13:47:22.955Z,15.53
2019-03-28T13:49:15.869Z,15.57
2019-03-28T13:50:15.882Z,15.72
2019-03-28T13:52:08.833Z,15.67
2019-03-28T13:53:08.811Z,15.69
2019-03-28T13:55:01.723Z,15.78
2019-03-28T13:56:01.738Z,15.74
2019-03-28T13:57:54.664Z,15.75
2019-03-28T13:58:54.667Z,15.86
2019-03-28T14:00:47.583Z,16.00
2019-03-28T14:01:47.595Z,15.97
2019-03-28T14:03:40.516Z,16.08
2019-03-28T14:04:40.526Z,16.17
2019-03-28T14:06:33.484Z,16.20
2019-03-28T14:07:33.453Z,16.14
2019-03-28T14:09:26.367Z,16.09
2019-03-28T14:10:26.379Z,16.00
2019-03-28T14:12:19.297Z,15.89
2019-03-28T14:13:19.308Z,15.89
2019-03-28T14:15:12.246Z,15.92
2019-03-28T14:16:12.234Z,15.82
2019-03-28T14:18:05.155Z,15.74
2019-03-28T14:19:05.163Z,15.76
2019-03-28T14:20:58.142Z,15.82
2019-03-28T14:21:58.091Z,15.87
2019-03-28T14:23:51.007Z,15.78
2019-03-28T14:24:51.026Z,15.74
2019-03-28T14:26:43.937Z,15.69
2019-03-28T14:27:43.942Z,15.82
2019-03-28T14:29:36.852Z,15.89
2019-03-28T14:30:39.399Z,15.94
2019-03-28T14:32:32.896Z,15.82
2019-03-28T14:33:29.797Z,15.84
2019-03-28T14:35:22.717Z,15.80
2019-03-28T14:36:25.202Z,15.94
2019-03-28T14:38:15.650Z,15.93
2019-03-28T14:39:15.657Z,15.97
2019-03-28T14:41:08.571Z,15.86
2019-03-28T14:42:08.603Z,15.82
2019-03-28T14:44:02.458Z,15.69
2019-03-28T14:45:01.512Z,15.65
2019-03-28T14:46:54.433Z,15.51
2019-03-28T14:47:54.472Z,15.43
2019-03-28T14:49:47.404Z,15.44
2019-03-28T14:50:47.547Z,15.39
2019-03-28T14:52:40.290Z,15.38
2019-03-28T14:53:40.299Z,15.31
2019-03-28T14:55:33.260Z,15.46
2019-03-28T14:56:33.268Z,15.50
2019-03-28T14:58:26.147Z,15.47
2019-03-28T14:59:32.398Z,15.59
2019-03-28T15:01:19.113Z,15.75
2019-03-28T15:02:19.081Z,15.74
2019-03-28T15:04:12.027Z,15.86
2019-03-28T15:05:12.010Z,15.78
2019-03-28T15:07:07.334Z,15.83
2019-03-28T15:08:04.938Z,15.74
2019-03-28T15:09:57.845Z,15.83
2019-03-28T15:10:57.861Z,15.89
2019-03-28T15:12:50.932Z,15.78
2019-03-28T15:13:50.928Z,15.89
2019-03-28T15:15:43.833Z,15.75
2019-03-28T15:16:43.846Z,15.68
2019-03-28T15:18:36.771Z,15.68
2019-03-28T15:19:36.773Z,15.62
2019-03-28T15:21:29.775Z,15.64
2019-03-28T15:22:29.842Z,15.57
2019-03-28T15:24:22.748Z,15.68
2019-03-28T15:25:22.705Z,15.72
2019-03-28T15:27:15.622Z,15.49
2019-03-28T15:28:15.634Z,15.59
2019-03-28T15:30:08.547Z,15.65
2019-03-28T15:31:08.558Z,15.59
2019-03-28T15:33:01.489Z,15.59
2019-03-28T15:34:01.487Z,15.59
2019-03-28T15:35:54.397Z,15.68
2019-03-28T15:36:54.414Z,15.71
2019-03-28T15:38:47.328Z,15.76
2019-03-28T15:39:47.336Z,15.83
2019-03-28T15:41:40.243Z,16.04
2019-03-28T15:42:40.258Z,16.05
2019-03-28T15:44:33.172Z,16.17
2019-03-28T15:45:33.681Z,16.27
2019-03-28T15:47:26.105Z,16.34
2019-03-28T15:48:26.115Z,16.30
2019-03-28T15:50:19.782Z,16.31
2019-03-28T15:51:19.538Z,16.33
2019-03-28T15:53:12.457Z,16.30
2019-03-28T15:54:12.467Z,16.28
2019-03-28T15:56:05.377Z,16.31
2019-03-28T15:57:05.384Z,16.14
2019-03-28T15:58:58.823Z,16.25
2019-03-28T15:59:58.821Z,16.11
2019-03-28T16:01:51.742Z,16.07
2019-03-28T16:02:51.750Z,16.09
2019-03-28T16:04:44.680Z,16.04
2019-03-28T16:05:57.597Z,16.09
2019-03-28T16:07:37.636Z,16.20
2019-03-28T16:08:37.611Z,16.35
2019-03-28T16:10:30.565Z,16.35
2019-03-28T16:11:30.536Z,16.34
2019-03-28T16:13:23.456Z,16.27
2019-03-28T16:14:23.464Z,16.17
2019-03-28T16:16:16.374Z,16.12
2019-03-28T16:17:16.388Z,16.14
2019-03-28T16:19:09.305Z,16.00
2019-03-28T16:20:09.313Z,15.90
2019-03-28T16:22:04.151Z,15.90
2019-03-28T16:23:02.240Z,15.87
2019-03-28T16:24:55.155Z,15.75
2019-03-28T16:25:55.166Z,15.76
2019-03-28T16:27:48.345Z,15.83
2019-03-28T16:28:48.094Z,15.74
2019-03-28T16:30:41.016Z,15.78
2019-03-28T16:31:41.019Z,15.76
2019-03-28T16:33:34.089Z,15.87
2019-03-28T16:34:34.098Z,15.93
2019-03-28T16:36:27.008Z,15.92
2019-03-28T16:37:27.711Z,15.92
2019-03-28T16:39:19.949Z,15.94
2019-03-28T16:40:19.951Z,15.93
2019-03-28T16:42:12.863Z,15.93
2019-03-28T16:43:12.874Z,15.78
2019-03-28T16:45:05.795Z,15.69
2019-03-28T16:46:07.726Z,15.78
2019-03-28T16:47:58.715Z,15.68
2019-03-28T16:48:58.725Z,15.57
2019-03-28T16:50:51.634Z,15.43
2019-03-28T16:51:51.808Z,15.32
2019-03-28T16:53:44.570Z,15.34
2019-03-28T16:54:44.577Z,15.34
2019-03-28T16:56:37.487Z,15.44
2019-03-28T16:57:37.502Z,15.43
2019-03-28T16:59:30.419Z,15.36
2019-03-28T17:00:30.426Z,15.38
2019-03-28T17:02:23.367Z,15.38
2019-03-28T17:03:23.351Z,15.31
2019-03-28T17:05:16.271Z,15.17
2019-03-28T17:06:16.276Z,15.36
2019-03-28T17:08:09.191Z,15.21
2019-03-28T17:09:09.699Z,15.20
2019-03-28T17:11:02.107Z,15.35
2019-03-28T17:12:02.121Z,15.35
2019-03-28T17:13:55.037Z,15.31
2019-03-28T17:14:55.053Z,15.34
2019-03-28T17:16:48.089Z,15.27
2019-03-28T17:17:48.168Z,15.28
2019-03-28T17:19:42.811Z,15.25
2019-03-28T17:20:41.025Z,15.25
2019-03-28T17:22:33.940Z,15.27
2019-03-28T17:23:33.949Z,15.21
2019-03-28T17:25:26.862Z,15.09
2019-03-28T17:26:26.869Z,15.09
2019-03-28T17:28:19.786Z,15.03
2019-03-28T17:29:19.794Z,15.01
2019-03-28T17:31:12.700Z,14.98
2019-03-28T17:32:12.718Z,14.95
2019-03-28T17:34:05.628Z,14.94
2019-03-28T17:35:05.644Z,14.91
2019-03-28T17:36:58.542Z,14.91
2019-03-28T17:37:58.558Z,14.78
2019-03-28T17:39:51.477Z,14.89
2019-03-28T17:40:51.481Z,14.83
2019-03-28T17:42:47.631Z,14.84
2019-03-28T17:43:44.399Z,14.91
2019-03-28T17:45:37.345Z,14.98
2019-03-28T17:46:37.343Z,14.98
2019-03-28T17:48:30.962Z,15.02
2019-03-28T17:49:30.259Z,14.92
2019-03-28T17:51:23.165Z,14.95
2019-03-28T17:52:23.178Z,14.92
2019-03-28T17:54:16.092Z,14.91
2019-03-28T17:55:16.126Z,14.80
2019-03-28T17:57:09.039Z,14.83
2019-03-28T17:58:09.047Z,14.78
2019-03-28T18:00:01.966Z,14.84
2019-03-28T18:01:01.976Z,14.83
2019-03-28T18:03:08.095Z,14.80
2019-03-28T18:03:54.900Z,14.83
2019-03-28T18:05:57.843Z,14.92
2019-03-28T18:06:47.869Z,14.91
2019-03-28T18:08:40.740Z,14.89
2019-03-28T18:09:40.747Z,14.94
2019-03-28T18:11:33.653Z,14.95
2019-03-28T18:12:33.669Z,14.86
2019-03-28T18:14:26.597Z,14.86
2019-03-28T18:15:26.593Z,14.84
2019-03-28T18:17:19.525Z,14.78
2019-03-28T18:18:19.521Z,14.72
2019-03-28T18:20:12.465Z,14.83
2019-03-28T18:21:12.457Z,14.81
2019-03-28T18:23:06.233Z,14.77
2019-03-28T18:24:06.251Z,14.72
2019-03-28T18:25:59.732Z,14.64
2019-03-28T18:26:59.270Z,14.62
2019-03-28T18:28:52.087Z,14.61
2019-03-28T18:29:52.123Z,14.62
2019-03-28T18:31:50.875Z,14.68
2019-03-28T18:32:45.089Z,14.57